createdAt,value
2017-08-09T00:00:55.597Z,1010.54
2017-08-09T00:02:05.451Z,1010.57
2017-08-09T00:03:14.982Z,1010.61
2017-08-09T00:04:24.191Z,1010.6
2017-08-09T00:05:33.399Z,1010.61
2017-08-09T00:06:42.754Z,1010.67
2017-08-09T00:07:51.973Z,1010.62
2017-08-09T00:09:01.183Z,1010.61
2017-08-09T00:10:10.712Z,1010.67
2017-08-09T00:11:19.593Z,1010.69
2017-08-09T00:12:29.177Z,1010.65
2017-08-09T00:13:39.350Z,1010.62
2017-08-09T00:14:48.557Z,1010.66
2017-08-09T00:15:58.409Z,1010.68
2017-08-09T00:17:07.941Z,1010.57
2017-08-09T00:18:16.977Z,1010.61
2017-08-09T00:19:25.867Z,1010.64
2017-08-09T00:20:35.073Z,1010.74
2017-08-09T00:21:43.957Z,1010.7
2017-08-09T00:22:53.810Z,1010.72
2017-08-09T00:24:03.319Z,1010.72
2017-08-09T00:25:13.176Z,1010.77
2017-08-09T00:26:22.711Z,1010.76
2017-08-09T00:27:32.564Z,1010.79
2017-08-09T00:28:42.092Z,1010.82
2017-08-09T00:29:50.975Z,1010.83
2017-08-09T00:31:00.186Z,1010.79
2017-08-09T00:32:09.714Z,1010.83
2017-08-09T00:33:19.919Z,1010.82
2017-08-09T00:34:28.801Z,1010.88
2017-08-09T00:35:38.167Z,1010.84
2017-08-09T00:36:47.376Z,1010.91
2017-08-09T00:37:56.589Z,1010.89
2017-08-09T00:39:06.116Z,1010.87
2017-08-09T00:40:15.317Z,1010.92
2017-08-09T00:41:24.301Z,1010.9
2017-08-09T00:42:33.831Z,1010.9
2017-08-09T00:43:43.358Z,1010.89
2017-08-09T00:44:52.238Z,1010.92
2017-08-09T00:46:01.443Z,1010.96
2017-08-09T00:47:11.024Z,1010.92
2017-08-09T00:48:20.878Z,1011.03
2017-08-09T00:49:30.407Z,1011.07
2017-08-09T00:50:39.617Z,1011.14
2017-08-09T00:51:48.824Z,1011.17
2017-08-09T00:52:57.953Z,1011.19
2017-08-09T00:54:06.834Z,1011.16
2017-08-09T00:55:15.717Z,1011.13
2017-08-09T00:56:25.256Z,1011.15
2017-08-09T00:57:34.145Z,1011.17
2017-08-09T00:58:43.182Z,1011.25
2017-08-09T00:59:52.388Z,1011.22
2017-08-09T01:01:02.571Z,1011.25
2017-08-09T01:02:12.102Z,1011.29
2017-08-09T01:03:21.629Z,1011.37
2017-08-09T01:04:31.458Z,1011.42
2017-08-09T01:05:40.344Z,1011.52
2017-08-09T01:06:49.228Z,1011.51
2017-08-09T01:07:58.757Z,1011.58
2017-08-09T01:09:07.964Z,1011.56
2017-08-09T01:10:17.691Z,1011.52
2017-08-09T01:11:26.572Z,1011.52
2017-08-09T01:12:35.776Z,1011.53
2017-08-09T01:13:45.306Z,1011.47
2017-08-09T01:14:54.193Z,1011.47
2017-08-09T01:16:04.211Z,1011.32
2017-08-09T01:17:14.066Z,1011.43
2017-08-09T01:18:23.273Z,1011.38
2017-08-09T01:19:32.804Z,1011.45
2017-08-09T01:20:41.686Z,1011.35
2017-08-09T01:21:50.618Z,1011.42
2017-08-09T01:22:59.820Z,1011.48
2017-08-09T01:24:09.027Z,1011.47
2017-08-09T01:25:18.880Z,1011.49
2017-08-09T01:26:28.736Z,1011.49
2017-08-09T01:27:37.945Z,1011.49
2017-08-09T01:28:46.828Z,1011.44
2017-08-09T01:29:56.038Z,1011.49
2017-08-09T01:31:04.924Z,1011.51
2017-08-09T01:32:14.128Z,1011.45
2017-08-09T01:33:23.488Z,1011.5
2017-08-09T01:34:33.021Z,1011.51
2017-08-09T01:35:42.224Z,1011.59
2017-08-09T01:36:51.435Z,1011.55
2017-08-09T01:38:01.286Z,1011.6
2017-08-09T01:39:10.420Z,1011.62
2017-08-09T01:40:20.289Z,1011.68
2017-08-09T01:41:29.817Z,1011.62
2017-08-09T01:42:38.698Z,1011.63
2017-08-09T01:43:48.225Z,1011.67
2017-08-09T01:44:58.235Z,1011.57
2017-08-09T01:46:07.455Z,1011.56
2017-08-09T01:47:16.986Z,1011.56
2017-08-09T01:48:26.512Z,1011.56
2017-08-09T01:49:35.723Z,1011.54
2017-08-09T01:50:44.811Z,1011.62
2017-08-09T01:51:53.698Z,1011.64
2017-08-09T01:53:02.908Z,1011.62
2017-08-09T01:54:11.787Z,1011.66
2017-08-09T01:55:20.997Z,1011.71
2017-08-09T01:56:30.201Z,1011.71
2017-08-09T01:57:39.094Z,1011.73
2017-08-09T01:58:48.300Z,1011.72
2017-08-09T01:59:58.157Z,1011.71
2017-08-09T02:01:08.332Z,1011.7
2017-08-09T02:02:17.690Z,1011.72
2017-08-09T02:03:27.218Z,1011.7
2017-08-09T02:04:36.749Z,1011.68
2017-08-09T02:05:46.279Z,1011.75
2017-08-09T02:06:55.167Z,1011.8
2017-08-09T02:08:04.198Z,1011.78
2017-08-09T02:09:13.408Z,1011.89
2017-08-09T02:10:22.618Z,1011.94
2017-08-09T02:11:31.824Z,1011.95
2017-08-09T02:12:41.358Z,1011.95
2017-08-09T02:13:50.670Z,1011.94
2017-08-09T02:15:00.201Z,1011.96
2017-08-09T02:16:09.084Z,1011.99
2017-08-09T02:17:18.614Z,1011.97
2017-08-09T02:18:27.494Z,1011.93
2017-08-09T02:19:36.796Z,1011.88
2017-08-09T02:20:46.325Z,1011.92
2017-08-09T02:21:56.516Z,1011.94
2017-08-09T02:23:06.046Z,1011.98
2017-08-09T02:24:15.583Z,1011.97
2017-08-09T02:25:25.587Z,1012
2017-08-09T02:26:34.466Z,1011.97
2017-08-09T02:27:43.674Z,1012.03
2017-08-09T02:28:53.216Z,1012.01
2017-08-09T02:30:03.068Z,1011.97
2017-08-09T02:31:12.064Z,1011.98
2017-08-09T02:32:21.269Z,1011.97
2017-08-09T02:33:31.129Z,1012
2017-08-09T02:34:40.348Z,1011.98
2017-08-09T02:35:49.565Z,1011.93
2017-08-09T02:36:59.573Z,1011.92
2017-08-09T02:38:08.780Z,1011.9
2017-08-09T02:39:17.665Z,1011.94
2017-08-09T02:40:27.199Z,1011.98
2017-08-09T02:41:36.734Z,1011.98
2017-08-09T02:42:46.413Z,1011.93
2017-08-09T02:43:56.590Z,1011.93
2017-08-09T02:45:06.443Z,1011.9
2017-08-09T02:46:16.298Z,1011.95
2017-08-09T02:47:26.499Z,1011.95
2017-08-09T02:48:36.083Z,1011.92
2017-08-09T02:49:45.625Z,1011.89
2017-08-09T02:50:55.148Z,1011.91
2017-08-09T02:52:05.008Z,1011.91
2017-08-09T02:53:14.230Z,1011.92
2017-08-09T02:54:24.187Z,1011.85
2017-08-09T02:55:33.397Z,1011.87
2017-08-09T02:56:42.602Z,1011.86
2017-08-09T02:57:52.780Z,1011.91
2017-08-09T02:59:02.304Z,1011.87
2017-08-09T03:00:11.240Z,1011.88
2017-08-09T03:01:20.772Z,1011.89
2017-08-09T03:02:29.977Z,1011.92
2017-08-09T03:03:39.512Z,1011.93
2017-08-09T03:04:49.042Z,1011.94
2017-08-09T03:05:58.620Z,1011.9
2017-08-09T03:07:08.161Z,1011.94
2017-08-09T03:08:18.038Z,1011.9
2017-08-09T03:09:27.246Z,1011.86
2017-08-09T03:10:36.124Z,1011.85
2017-08-09T03:11:45.582Z,1011.81
2017-08-09T03:12:55.113Z,1011.88
2017-08-09T03:14:05.313Z,1011.86
2017-08-09T03:15:14.200Z,1011.88
2017-08-09T03:16:23.404Z,1011.87
2017-08-09T03:17:32.667Z,1011.92
2017-08-09T03:18:41.872Z,1011.98
2017-08-09T03:19:51.401Z,1012.01
2017-08-09T03:21:00.605Z,1011.98
2017-08-09T03:22:10.158Z,1012.04
2017-08-09T03:23:19.531Z,1012.01
2017-08-09T03:24:29.390Z,1012.05
2017-08-09T03:25:38.593Z,1012.03
2017-08-09T03:26:48.119Z,1012.07
2017-08-09T03:27:57.989Z,1012.05
2017-08-09T03:29:07.019Z,1012.08
2017-08-09T03:30:16.550Z,1012.1
2017-08-09T03:31:26.413Z,1012.15
2017-08-09T03:32:35.298Z,1012.2
2017-08-09T03:33:44.180Z,1012.19
2017-08-09T03:34:54.014Z,1012.2
2017-08-09T03:36:03.571Z,1012.22
2017-08-09T03:37:13.430Z,1012.24
2017-08-09T03:38:22.968Z,1012.25
2017-08-09T03:39:32.173Z,1012.26
2017-08-09T03:40:41.800Z,1012.23
2017-08-09T03:41:51.322Z,1012.29
2017-08-09T03:43:01.179Z,1012.31
2017-08-09T03:44:10.400Z,1012.32
2017-08-09T03:45:19.605Z,1012.32
2017-08-09T03:46:28.960Z,1012.31
2017-08-09T03:47:38.486Z,1012.28
2017-08-09T03:48:47.696Z,1012.32
2017-08-09T03:49:57.545Z,1012.3
2017-08-09T03:51:07.087Z,1012.33
2017-08-09T03:52:16.915Z,1012.38
2017-08-09T03:53:26.122Z,1012.38
2017-08-09T03:54:35.661Z,1012.36
2017-08-09T03:55:45.193Z,1012.31
2017-08-09T03:56:54.726Z,1012.32
2017-08-09T03:58:04.187Z,1012.29
2017-08-09T03:59:13.072Z,1012.27
2017-08-09T04:00:22.599Z,1012.26
2017-08-09T04:01:32.129Z,1012.28
2017-08-09T04:02:41.659Z,1012.23
2017-08-09T04:03:51.660Z,1012.26
2017-08-09T04:05:00.863Z,1012.25
2017-08-09T04:06:10.399Z,1012.26
2017-08-09T04:07:19.612Z,1012.29
2017-08-09T04:08:28.817Z,1012.28
2017-08-09T04:09:38.323Z,1012.33
2017-08-09T04:10:47.527Z,1012.29
2017-08-09T04:11:57.055Z,1012.37
2017-08-09T04:13:06.258Z,1012.33
2017-08-09T04:14:16.119Z,1012.31
2017-08-09T04:15:25.797Z,1012.35
2017-08-09T04:16:34.686Z,1012.39
2017-08-09T04:17:44.219Z,1012.36
2017-08-09T04:18:53.101Z,1012.41
2017-08-09T04:20:02.626Z,1012.47
2017-08-09T04:21:12.254Z,1012.46
2017-08-09T04:22:21.456Z,1012.48
2017-08-09T04:23:31.311Z,1012.49
2017-08-09T04:24:40.522Z,1012.49
2017-08-09T04:25:50.050Z,1012.47
2017-08-09T04:26:59.681Z,1012.46
2017-08-09T04:28:08.888Z,1012.45
2017-08-09T04:29:18.101Z,1012.46
2017-08-09T04:30:27.631Z,1012.44
2017-08-09T04:31:36.835Z,1012.48
2017-08-09T04:32:47.164Z,1012.52
2017-08-09T04:33:56.044Z,1012.46
2017-08-09T04:35:05.918Z,1012.46
2017-08-09T04:36:15.126Z,1012.48
2017-08-09T04:37:24.978Z,1012.56
2017-08-09T04:38:33.959Z,1012.57
2017-08-09T04:39:43.163Z,1012.52
2017-08-09T04:40:52.047Z,1012.52
2017-08-09T04:42:00.928Z,1012.53
2017-08-09T04:43:10.462Z,1012.55
2017-08-09T04:44:19.990Z,1012.54
2017-08-09T04:45:29.839Z,1012.55
2017-08-09T04:46:39.380Z,1012.5
2017-08-09T04:47:48.264Z,1012.53
2017-08-09T04:48:57.149Z,1012.52
2017-08-09T04:50:06.729Z,1012.51
2017-08-09T04:51:15.936Z,1012.48
2017-08-09T04:52:25.469Z,1012.52
2017-08-09T04:53:34.349Z,1012.52
2017-08-09T04:54:43.555Z,1012.52
2017-08-09T04:55:53.132Z,1012.56
2017-08-09T04:57:02.340Z,1012.56
2017-08-09T04:58:12.200Z,1012.62
2017-08-09T04:59:21.410Z,1012.63
2017-08-09T05:00:30.621Z,1012.62
2017-08-09T05:01:40.624Z,1012.63
2017-08-09T05:02:49.829Z,1012.61
2017-08-09T05:03:59.359Z,1012.62
2017-08-09T05:05:08.566Z,1012.57
2017-08-09T05:06:18.120Z,1012.55
2017-08-09T05:07:27.486Z,1012.58
2017-08-09T05:08:36.692Z,1012.6
2017-08-09T05:09:45.908Z,1012.62
2017-08-09T05:10:55.115Z,1012.64
2017-08-09T05:12:04.322Z,1012.69
2017-08-09T05:13:13.581Z,1012.76
2017-08-09T05:14:22.463Z,1012.73
2017-08-09T05:15:31.673Z,1012.74
2017-08-09T05:16:40.553Z,1012.66
2017-08-09T05:17:50.083Z,1012.72
2017-08-09T05:18:59.441Z,1012.7
2017-08-09T05:20:08.969Z,1012.74
2017-08-09T05:21:18.500Z,1012.72
2017-08-09T05:22:28.033Z,1012.72
2017-08-09T05:23:37.887Z,1012.78
2017-08-09T05:24:47.193Z,1012.77
2017-08-09T05:25:56.729Z,1012.82
2017-08-09T05:27:06.268Z,1012.79
2017-08-09T05:28:15.471Z,1012.87
2017-08-09T05:29:25.325Z,1012.87
2017-08-09T05:30:35.356Z,1012.9
2017-08-09T05:31:44.280Z,1012.92
2017-08-09T05:32:53.160Z,1012.96
2017-08-09T05:34:02.368Z,1012.92
2017-08-09T05:35:11.997Z,1012.97
2017-08-09T05:36:21.532Z,1012.94
2017-08-09T05:37:31.385Z,1012.99
2017-08-09T05:38:40.930Z,1012.92
2017-08-09T05:39:49.815Z,1013
2017-08-09T05:40:59.353Z,1013.01
2017-08-09T05:42:08.565Z,1013.01
2017-08-09T05:43:17.774Z,1013
2017-08-09T05:44:27.012Z,1012.99
2017-08-09T05:45:36.221Z,1013.01
2017-08-09T05:46:45.763Z,1013.02
2017-08-09T05:47:55.940Z,1013
2017-08-09T05:49:04.824Z,1013.03
2017-08-09T05:50:13.708Z,1013.04
2017-08-09T05:51:23.241Z,1013.04
2017-08-09T05:52:32.448Z,1013.1
2017-08-09T05:53:41.654Z,1013.05
2017-08-09T05:54:51.187Z,1013.07
2017-08-09T05:56:01.093Z,1013.06
2017-08-09T05:57:10.307Z,1013.12
2017-08-09T05:58:20.174Z,1013.07
2017-08-09T05:59:29.380Z,1013.1
2017-08-09T06:00:38.717Z,1013.06
2017-08-09T06:01:48.015Z,1013.04
2017-08-09T06:02:57.559Z,1013.07
2017-08-09T06:04:07.128Z,1013.1
2017-08-09T06:05:16.662Z,1013.12
2017-08-09T06:06:26.255Z,1013.1
2017-08-09T06:07:35.943Z,1013.12
2017-08-09T06:08:45.475Z,1013.06
2017-08-09T06:09:54.691Z,1013.08
2017-08-09T06:11:03.897Z,1013.1
2017-08-09T06:12:13.105Z,1013.06
2017-08-09T06:13:22.630Z,1013.09
2017-08-09T06:14:32.164Z,1013.09
2017-08-09T06:15:41.375Z,1013.03
2017-08-09T06:16:50.256Z,1013.06
2017-08-09T06:17:59.788Z,1013.11
2017-08-09T06:19:09.496Z,1013.14
2017-08-09T06:20:18.708Z,1013.15
2017-08-09T06:21:28.558Z,1013.08
2017-08-09T06:22:38.100Z,1013.14
2017-08-09T06:23:46.986Z,1013.1
2017-08-09T06:24:56.348Z,1013.1
2017-08-09T06:26:05.891Z,1013.13
2017-08-09T06:27:15.756Z,1013.14
2017-08-09T06:28:25.353Z,1013.18
2017-08-09T06:29:34.569Z,1013.15
2017-08-09T06:30:44.098Z,1013.18
2017-08-09T06:31:53.955Z,1013.17
2017-08-09T06:33:03.165Z,1013.17
2017-08-09T06:34:13.045Z,1013.13
2017-08-09T06:35:22.253Z,1013.16
2017-08-09T06:36:31.935Z,1013.09
2017-08-09T06:37:40.821Z,1013.13
2017-08-09T06:38:50.032Z,1013.17
2017-08-09T06:39:59.571Z,1013.18
2017-08-09T06:41:09.750Z,1013.17
2017-08-09T06:42:19.261Z,1013.14
2017-08-09T06:43:29.441Z,1013.15
2017-08-09T06:44:38.971Z,1013.15
2017-08-09T06:45:48.181Z,1013.18
2017-08-09T06:46:57.714Z,1013.14
2017-08-09T06:48:08.095Z,1013.13
2017-08-09T06:49:17.946Z,1013.22
2017-08-09T06:50:27.810Z,1013.21
2017-08-09T06:51:36.711Z,1013.26
2017-08-09T06:52:45.931Z,1013.27
2017-08-09T06:53:55.520Z,1013.26
2017-08-09T06:55:05.705Z,1013.26
2017-08-09T06:56:14.592Z,1013.31
2017-08-09T06:57:23.477Z,1013.29
2017-08-09T06:58:33.020Z,1013.29
2017-08-09T06:59:42.332Z,1013.3
2017-08-09T07:00:51.868Z,1013.31
2017-08-09T07:02:01.081Z,1013.35
2017-08-09T07:03:09.980Z,1013.36
2017-08-09T07:04:18.902Z,1013.39
2017-08-09T07:05:28.747Z,1013.4
2017-08-09T07:06:37.895Z,1013.37
2017-08-09T07:07:47.317Z,1013.38
2017-08-09T07:08:56.374Z,1013.35
2017-08-09T07:10:06.453Z,1013.42
2017-08-09T07:11:16.312Z,1013.39
2017-08-09T07:12:26.060Z,1013.46
2017-08-09T07:13:35.743Z,1013.45
2017-08-09T07:14:45.131Z,1013.45
2017-08-09T07:15:55.095Z,1013.45
2017-08-09T07:17:05.194Z,1013.45
2017-08-09T07:18:14.086Z,1013.42
2017-08-09T07:19:23.319Z,1013.5
2017-08-09T07:20:32.902Z,1013.52
2017-08-09T07:21:42.171Z,1013.55
2017-08-09T07:22:51.831Z,1013.58
2017-08-09T07:24:01.112Z,1013.61
2017-08-09T07:25:11.153Z,1013.59
2017-08-09T07:26:20.763Z,1013.65
2017-08-09T07:27:30.362Z,1013.7
2017-08-09T07:28:39.800Z,1013.65
2017-08-09T07:29:48.846Z,1013.67
2017-08-09T07:30:59.029Z,1013.68
2017-08-09T07:32:08.652Z,1013.72
2017-08-09T07:33:17.957Z,1013.72
2017-08-09T07:34:27.644Z,1013.69
2017-08-09T07:35:37.564Z,1013.74
2017-08-09T07:36:47.625Z,1013.76
2017-08-09T07:37:57.124Z,1013.76
2017-08-09T07:39:06.491Z,1013.72
2017-08-09T07:40:16.309Z,1013.75
2017-08-09T07:41:26.101Z,1013.75
2017-08-09T07:42:35.424Z,1013.77
2017-08-09T07:43:44.711Z,1013.8
2017-08-09T07:44:54.776Z,1013.84
2017-08-09T07:46:04.456Z,1013.85
2017-08-09T07:47:14.674Z,1013.84
2017-08-09T07:48:24.226Z,1013.85
2017-08-09T07:49:33.456Z,1013.84
2017-08-09T07:50:42.683Z,1013.88
2017-08-09T07:51:52.043Z,1013.87
2017-08-09T07:53:01.594Z,1013.87
2017-08-09T07:54:11.158Z,1013.88
2017-08-09T07:55:21.411Z,1013.85
2017-08-09T07:56:31.288Z,1014
2017-08-09T07:57:41.293Z,1013.94
2017-08-09T07:58:50.517Z,1013.97
2017-08-09T07:59:59.733Z,1014.01
2017-08-09T08:01:09.922Z,1014.08
2017-08-09T08:02:19.135Z,1014.1
2017-08-09T08:03:28.820Z,1014.1
2017-08-09T08:04:38.370Z,1014.16
2017-08-09T08:05:47.251Z,1014.16
2017-08-09T08:06:56.462Z,1014.16
2017-08-09T08:08:05.678Z,1014.17
2017-08-09T08:09:14.987Z,1014.19
2017-08-09T08:10:25.012Z,1014.25
2017-08-09T08:11:34.001Z,1014.25
2017-08-09T08:12:43.239Z,1014.28
2017-08-09T08:13:52.509Z,1014.32
2017-08-09T08:15:01.549Z,1014.31
2017-08-09T08:16:11.527Z,1014.36
2017-08-09T08:17:20.776Z,1014.38
2017-08-09T08:18:29.995Z,1014.4
2017-08-09T08:19:39.202Z,1014.39
2017-08-09T08:20:49.040Z,1014.46
2017-08-09T08:21:58.251Z,1014.47
2017-08-09T08:23:07.786Z,1014.5
2017-08-09T08:24:17.379Z,1014.53
2017-08-09T08:25:26.916Z,1014.51
2017-08-09T08:26:35.910Z,1014.58
2017-08-09T08:27:45.122Z,1014.57
2017-08-09T08:28:54.670Z,1014.63
2017-08-09T08:30:04.250Z,1014.63
2017-08-09T08:31:14.461Z,1014.71
2017-08-09T08:32:23.412Z,1014.73
2017-08-09T08:33:32.993Z,1014.73
2017-08-09T08:34:41.914Z,1014.73
2017-08-09T08:35:51.454Z,1014.76
2017-08-09T08:37:00.662Z,1014.76
2017-08-09T08:38:10.576Z,1014.73
2017-08-09T08:39:20.134Z,1014.78
2017-08-09T08:40:29.672Z,1014.82
2017-08-09T08:41:38.978Z,1014.84
2017-08-09T08:42:48.889Z,1014.91
2017-08-09T08:43:59.115Z,1014.87
2017-08-09T08:45:08.693Z,1014.92
2017-08-09T08:46:18.360Z,1014.9
2017-08-09T08:47:27.944Z,1014.92
2017-08-09T08:48:37.198Z,1014.99
2017-08-09T08:49:46.780Z,1015.01
2017-08-09T08:50:56.667Z,1014.97
2017-08-09T08:52:06.543Z,1015
2017-08-09T08:53:16.102Z,1015.01
2017-08-09T08:54:25.047Z,1015.01
2017-08-09T08:55:34.786Z,1015.04
2017-08-09T08:56:44.007Z,1015.04
2017-08-09T08:57:53.224Z,1015.07
2017-08-09T08:59:02.765Z,1015.09
2017-08-09T09:00:11.661Z,1015.17
2017-08-09T09:01:21.349Z,1015.06
2017-08-09T09:02:30.983Z,1015.14
2017-08-09T09:03:40.192Z,1015.11
2017-08-09T09:04:49.412Z,1015.14
2017-08-09T09:05:58.725Z,1015.19
2017-08-09T09:07:08.244Z,1015.13
2017-08-09T09:08:18.154Z,1015.13
2017-08-09T09:09:27.087Z,1015.15
2017-08-09T09:10:37.096Z,1015.14
2017-08-09T09:11:46.763Z,1015.11
2017-08-09T09:12:56.790Z,1015.16
2017-08-09T09:14:06.464Z,1015.16
2017-08-09T09:15:16.405Z,1015.14
2017-08-09T09:16:25.955Z,1015.18
2017-08-09T09:17:35.512Z,1015.2
2017-08-09T09:18:45.477Z,1015.15
2017-08-09T09:19:54.687Z,1015.15
2017-08-09T09:21:04.254Z,1015.21
2017-08-09T09:22:13.819Z,1015.25
2017-08-09T09:23:23.509Z,1015.21
2017-08-09T09:24:33.528Z,1015.27
2017-08-09T09:25:42.430Z,1015.34
2017-08-09T09:26:51.973Z,1015.34
2017-08-09T09:28:01.832Z,1015.33
2017-08-09T09:29:11.040Z,1015.37
2017-08-09T09:30:19.981Z,1015.36
2017-08-09T09:31:29.515Z,1015.33
2017-08-09T09:32:38.401Z,1015.34
2017-08-09T09:33:47.937Z,1015.37
2017-08-09T09:34:57.496Z,1015.37
2017-08-09T09:36:06.534Z,1015.43
2017-08-09T09:37:16.076Z,1015.44
2017-08-09T09:38:25.287Z,1015.44
2017-08-09T09:39:34.188Z,1015.44
2017-08-09T09:40:44.050Z,1015.5
2017-08-09T09:41:53.882Z,1015.49
2017-08-09T09:43:03.111Z,1015.51
2017-08-09T09:44:12.323Z,1015.52
2017-08-09T09:45:21.536Z,1015.45
2017-08-09T09:46:31.401Z,1015.5
2017-08-09T09:47:41.315Z,1015.5
2017-08-09T09:48:50.526Z,1015.5
2017-08-09T09:50:00.063Z,1015.49
2017-08-09T09:51:09.921Z,1015.46
2017-08-09T09:52:18.815Z,1015.45
2017-08-09T09:53:28.079Z,1015.49
2017-08-09T09:54:37.613Z,1015.55
2017-08-09T09:55:46.819Z,1015.5
2017-08-09T09:56:56.053Z,1015.49
2017-08-09T09:58:05.588Z,1015.51
2017-08-09T09:59:14.969Z,1015.48
2017-08-09T10:00:24.536Z,1015.46
2017-08-09T10:01:33.431Z,1015.45
2017-08-09T10:02:42.991Z,1015.44
2017-08-09T10:03:52.522Z,1015.41
2017-08-09T10:05:01.563Z,1015.41
2017-08-09T10:06:11.427Z,1015.42
2017-08-09T10:07:20.637Z,1015.42
2017-08-09T10:08:29.853Z,1015.46
2017-08-09T10:09:39.391Z,1015.5
2017-08-09T10:10:49.027Z,1015.56
2017-08-09T10:11:58.560Z,1015.57
2017-08-09T10:13:08.422Z,1015.53
2017-08-09T10:14:17.635Z,1015.58
2017-08-09T10:15:27.172Z,1015.6
2017-08-09T10:16:36.585Z,1015.59
2017-08-09T10:17:45.811Z,1015.59
2017-08-09T10:18:55.670Z,1015.55
2017-08-09T10:20:04.881Z,1015.61
2017-08-09T10:21:14.092Z,1015.55
2017-08-09T10:22:24.153Z,1015.56
2017-08-09T10:23:33.375Z,1015.57
2017-08-09T10:24:43.239Z,1015.56
2017-08-09T10:25:52.466Z,1015.54
2017-08-09T10:27:01.716Z,1015.52
2017-08-09T10:28:10.976Z,1015.59
2017-08-09T10:29:20.836Z,1015.65
2017-08-09T10:30:30.375Z,1015.66
2017-08-09T10:31:39.278Z,1015.62
2017-08-09T10:32:48.820Z,1015.63
2017-08-09T10:33:57.860Z,1015.64
2017-08-09T10:35:07.396Z,1015.68
2017-08-09T10:36:16.632Z,1015.76
2017-08-09T10:37:25.521Z,1015.66
2017-08-09T10:38:34.732Z,1015.66
2017-08-09T10:39:44.422Z,1015.7
2017-08-09T10:40:54.289Z,1015.72
2017-08-09T10:42:03.824Z,1015.67
2017-08-09T10:43:13.683Z,1015.72
2017-08-09T10:44:22.572Z,1015.75
2017-08-09T10:45:32.166Z,1015.79
2017-08-09T10:46:41.703Z,1015.82
2017-08-09T10:47:50.588Z,1015.81
2017-08-09T10:48:59.482Z,1015.84
2017-08-09T10:50:09.023Z,1015.85
2017-08-09T10:51:18.285Z,1015.86
2017-08-09T10:52:28.147Z,1015.89
2017-08-09T10:53:38.002Z,1015.84
2017-08-09T10:54:47.536Z,1015.92
2017-08-09T10:55:56.754Z,1015.89
2017-08-09T10:57:07.046Z,1015.98
2017-08-09T10:58:16.274Z,1015.99
2017-08-09T10:59:25.818Z,1015.95
2017-08-09T11:00:35.032Z,1015.99
2017-08-09T11:01:44.565Z,1015.97
2017-08-09T11:02:54.574Z,1015.96
2017-08-09T11:04:04.440Z,1016.11
2017-08-09T11:05:13.979Z,1016.06
2017-08-09T11:06:23.514Z,1016.06
2017-08-09T11:07:32.734Z,1016.06
2017-08-09T11:08:42.367Z,1016.08
2017-08-09T11:09:51.594Z,1016.08
2017-08-09T11:11:01.127Z,1016.08
2017-08-09T11:12:10.343Z,1016.06
2017-08-09T11:13:19.561Z,1016.07
2017-08-09T11:14:29.294Z,1016.12
2017-08-09T11:15:38.826Z,1016.08
2017-08-09T11:16:48.360Z,1016.11
2017-08-09T11:17:57.249Z,1016.11
2017-08-09T11:19:06.138Z,1016.07
2017-08-09T11:20:15.176Z,1016.11
2017-08-09T11:21:24.063Z,1016.16
2017-08-09T11:22:33.274Z,1016.21
2017-08-09T11:23:43.135Z,1016.19
2017-08-09T11:24:52.670Z,1016.16
2017-08-09T11:26:02.626Z,1016.18
2017-08-09T11:27:11.517Z,1016.15
2017-08-09T11:28:20.732Z,1016.18
2017-08-09T11:29:29.947Z,1016.17
2017-08-09T11:30:39.498Z,1016.19
2017-08-09T11:31:48.759Z,1016.23
2017-08-09T11:32:58.291Z,1016.2
2017-08-09T11:34:07.185Z,1016.25
2017-08-09T11:35:16.403Z,1016.2
2017-08-09T11:36:25.943Z,1016.22
2017-08-09T11:37:35.315Z,1016.24
2017-08-09T11:38:44.202Z,1016.25
2017-08-09T11:39:53.744Z,1016.23
2017-08-09T11:41:02.954Z,1016.34
2017-08-09T11:42:12.813Z,1016.36
2017-08-09T11:43:22.023Z,1016.33
2017-08-09T11:44:31.234Z,1016.4
2017-08-09T11:45:40.127Z,1016.32
2017-08-09T11:46:49.661Z,1016.39
2017-08-09T11:47:58.554Z,1016.28
2017-08-09T11:49:07.445Z,1016.35
2017-08-09T11:50:16.661Z,1016.26
2017-08-09T11:51:26.201Z,1016.25
2017-08-09T11:52:35.415Z,1016.23
2017-08-09T11:53:45.276Z,1016.25
2017-08-09T11:54:55.725Z,1016.28
2017-08-09T11:56:04.936Z,1016.32
2017-08-09T11:57:14.474Z,1016.28
2017-08-09T11:58:23.684Z,1016.34
2017-08-09T11:59:32.905Z,1016.26
2017-08-09T12:00:42.220Z,1016.26
2017-08-09T12:01:51.758Z,1016.3
2017-08-09T12:03:01.635Z,1016.27
2017-08-09T12:04:11.494Z,1016.32
2017-08-09T12:05:21.032Z,1016.31
2017-08-09T12:06:30.247Z,1016.31
2017-08-09T12:07:39.471Z,1016.33
2017-08-09T12:08:49.014Z,1016.33
2017-08-09T12:09:57.903Z,1016.29
2017-08-09T12:11:07.489Z,1016.31
2017-08-09T12:12:17.006Z,1016.28
2017-08-09T12:13:26.290Z,1016.24
2017-08-09T12:14:35.829Z,1016.31
2017-08-09T12:15:45.693Z,1016.32
2017-08-09T12:16:55.553Z,1016.39
2017-08-09T12:18:05.143Z,1016.31
2017-08-09T12:19:14.709Z,1016.29
2017-08-09T12:20:24.573Z,1016.38
2017-08-09T12:21:33.798Z,1016.34
2017-08-09T12:22:43.339Z,1016.37
2017-08-09T12:23:53.404Z,1016.4
2017-08-09T12:25:03.268Z,1016.3
2017-08-09T12:26:12.483Z,1016.31
2017-08-09T12:27:22.690Z,1016.31
2017-08-09T12:28:32.243Z,1016.26
2017-08-09T12:29:42.111Z,1016.3
2017-08-09T12:30:51.653Z,1016.29
2017-08-09T12:32:01.195Z,1016.33
2017-08-09T12:33:11.057Z,1016.34
2017-08-09T12:34:20.920Z,1016.36
2017-08-09T12:35:30.510Z,1016.37
2017-08-09T12:36:40.053Z,1016.37
2017-08-09T12:37:49.268Z,1016.35
2017-08-09T12:38:59.131Z,1016.36
2017-08-09T12:40:09.318Z,1016.38
2017-08-09T12:41:19.331Z,1016.39
2017-08-09T12:42:28.876Z,1016.43
2017-08-09T12:43:38.431Z,1016.46
2017-08-09T12:44:48.296Z,1016.46
2017-08-09T12:45:57.835Z,1016.46
2017-08-09T12:47:08.120Z,1016.51
2017-08-09T12:48:17.681Z,1016.46
2017-08-09T12:49:26.945Z,1016.52
2017-08-09T12:50:36.524Z,1016.49
2017-08-09T12:51:45.743Z,1016.39
2017-08-09T12:52:54.692Z,1016.41
2017-08-09T12:54:04.242Z,1016.54
2017-08-09T12:55:13.141Z,1016.54
2017-08-09T12:56:23.005Z,1016.45
2017-08-09T12:57:32.566Z,1016.48
2017-08-09T12:58:41.950Z,1016.49
2017-08-09T12:59:51.499Z,1016.45
2017-08-09T13:01:00.399Z,1016.49
2017-08-09T13:02:09.649Z,1016.45
2017-08-09T13:03:19.529Z,1016.44
2017-08-09T13:04:29.017Z,1016.5
2017-08-09T13:05:38.243Z,1016.54
2017-08-09T13:06:47.179Z,1016.51
2017-08-09T13:07:57.057Z,1016.45
2017-08-09T13:09:06.649Z,1016.48
2017-08-09T13:10:16.816Z,1016.47
2017-08-09T13:11:26.362Z,1016.49
2017-08-09T13:12:35.265Z,1016.43
2017-08-09T13:13:44.495Z,1016.51
2017-08-09T13:14:53.400Z,1016.48
2017-08-09T13:16:02.902Z,1016.47
2017-08-09T13:17:12.166Z,1016.47
2017-08-09T13:18:21.386Z,1016.51
2017-08-09T13:19:31.393Z,1016.58
2017-08-09T13:20:40.677Z,1016.53
2017-08-09T13:23:28.881Z,1016.61
2017-08-09T13:24:38.450Z,1016.62
2017-08-09T13:25:47.787Z,1016.58
2017-08-09T13:26:57.331Z,1016.6
2017-08-09T13:28:06.882Z,1016.6
2017-08-09T13:29:16.431Z,1016.64
2017-08-09T13:30:25.339Z,1016.56
2017-08-09T13:31:34.582Z,1016.56
2017-08-09T13:32:44.461Z,1016.6
2017-08-09T13:33:54.010Z,1016.49
2017-08-09T13:35:03.614Z,1016.48
2017-08-09T13:36:13.163Z,1016.44
2017-08-09T13:37:22.554Z,1016.53
2017-08-09T13:38:32.105Z,1016.49
2017-08-09T13:39:41.006Z,1016.48
2017-08-09T13:40:49.915Z,1016.59
2017-08-09T13:41:59.462Z,1016.53
2017-08-09T13:43:09.685Z,1016.54
2017-08-09T13:44:18.906Z,1016.72
2017-08-09T13:45:28.774Z,1016.63
2017-08-09T13:46:38.314Z,1016.56
2017-08-09T13:47:47.210Z,1016.61
2017-08-09T13:48:56.428Z,1016.57
2017-08-09T13:50:05.674Z,1016.53
2017-08-09T13:51:15.560Z,1016.58
2017-08-09T13:52:24.817Z,1016.59
2017-08-09T13:53:34.486Z,1016.66
2017-08-09T13:54:43.394Z,1016.74
2017-08-09T13:55:52.619Z,1016.59
2017-08-09T13:57:02.162Z,1016.65
2017-08-09T13:58:12.181Z,1016.62
2017-08-09T13:59:21.400Z,1016.62
2017-08-09T14:00:30.621Z,1016.59
2017-08-09T14:01:39.848Z,1016.57
2017-08-09T14:02:49.089Z,1016.59
2017-08-09T14:03:58.525Z,1016.68
2017-08-09T14:05:08.078Z,1016.75